createdAt,value
2023-01-07T00:01:07.021Z,100886.56
2023-01-07T00:06:15.102Z,100884.88
2023-01-07T00:11:24.362Z,100888.53
2023-01-07T00:16:29.906Z,100888.63
2023-01-07T00:21:32.736Z,100878.94
2023-01-07T00:26:37.012Z,100878.97
2023-01-07T00:31:41.167Z,100882.56
2023-01-07T00:36:45.461Z,100881.72
2023-01-07T00:42:11.503Z,100897.72
2023-01-07T00:47:13.587Z,100901.28
2023-01-07T00:52:15.623Z,100903.91
2023-01-07T00:57:17.633Z,100917.22
2023-01-07T01:02:19.801Z,100931.38
2023-01-07T01:07:21.826Z,100923.41
2023-01-07T01:12:23.990Z,100921.63
2023-01-07T01:17:26.049Z,100932.22
2023-01-07T01:22:28.032Z,100921.59
2023-01-07T01:27:31.646Z,100917.16
2023-01-07T01:32:33.706Z,100911.81
2023-01-07T01:37:35.719Z,100910.03
2023-01-07T01:42:37.821Z,100915.31
2023-01-07T01:47:48.818Z,100924.13
2023-01-07T01:53:16.531Z,100905.50
2023-01-07T01:58:22.512Z,100907.25
2023-01-07T02:03:26.496Z,100910.75
2023-01-07T02:08:29.014Z,100904.50
2023-01-07T02:13:38.802Z,100915.13
2023-01-07T02:19:07.240Z,100900.94
2023-01-07T02:24:24.372Z,100886.72
2023-01-07T02:29:54.747Z,100902.59
2023-01-07T02:35:12.805Z,100906.91
2023-01-07T02:40:24.646Z,100921.88
2023-01-07T02:45:39.676Z,100920.94
2023-01-07T02:50:41.686Z,100926.16
2023-01-07T02:56:10.116Z,100927.00
2023-01-07T03:01:30.552Z,100917.19
2023-01-07T03:06:50.873Z,100934.78
2023-01-07T03:12:15.850Z,100929.47
2023-01-07T03:17:26.007Z,100929.41
2023-01-07T03:22:31.004Z,100925.78
2023-01-07T03:27:36.835Z,100929.25
2023-01-07T03:32:58.317Z,100935.41
2023-01-07T03:38:02.155Z,100937.06
2023-01-07T03:43:04.614Z,100927.22
2023-01-07T03:48:06.965Z,100935.19
2023-01-07T03:53:09.112Z,100949.25
2023-01-07T03:58:11.208Z,100928.91
2023-01-07T04:03:13.223Z,100933.25
2023-01-07T04:08:15.244Z,100922.63
2023-01-07T04:13:17.184Z,100931.41
2023-01-07T04:18:19.136Z,100933.97
2023-01-07T04:23:21.136Z,100952.50
2023-01-07T04:28:23.171Z,100945.41
2023-01-07T04:33:25.130Z,100940.91
2023-01-07T04:38:27.197Z,100947.97
2023-01-07T04:43:29.213Z,100954.09
2023-01-07T04:48:31.792Z,100952.34
2023-01-07T04:53:33.812Z,100955.81
2023-01-07T04:58:35.816Z,100967.25
2023-01-07T05:03:37.981Z,100961.88
2023-01-07T05:08:40.016Z,100956.53
2023-01-07T05:13:41.939Z,100946.78
2023-01-07T05:18:44.691Z,100940.50
2023-01-07T05:23:46.727Z,100945.78
2023-01-07T05:28:48.745Z,100948.38
2023-01-07T05:33:50.751Z,100950.94
2023-01-07T05:38:52.753Z,100953.56
2023-01-07T05:43:54.702Z,100953.47
2023-01-07T05:48:56.678Z,100932.16
2023-01-07T05:53:58.665Z,100938.34
2023-01-07T05:59:00.679Z,100948.88
2023-01-07T06:04:02.717Z,100973.44
2023-01-07T06:09:05.048Z,100959.13
2023-01-07T06:14:07.044Z,100969.75
2023-01-07T06:19:09.007Z,100982.09
2023-01-07T06:24:11.629Z,100996.09
2023-01-07T06:29:13.517Z,100989.91
2023-01-07T06:34:15.664Z,100988.94
2023-01-07T06:39:17.771Z,100999.50
2023-01-07T06:44:19.962Z,101003.00
2023-01-07T06:49:22.059Z,101005.56
2023-01-07T06:54:24.073Z,101006.34
2023-01-07T06:59:26.070Z,100999.25
2023-01-07T07:04:28.043Z,101009.84
2023-01-07T07:09:30.034Z,101000.13
2023-01-07T07:14:32.243Z,101007.19
2023-01-07T07:19:34.231Z,101010.69
2023-01-07T07:24:36.206Z,101023.00
2023-01-07T07:29:38.190Z,101033.56
2023-01-07T07:34:40.250Z,101035.25
2023-01-07T07:39:42.228Z,101044.13
2023-01-07T07:44:44.243Z,101043.25
2023-01-07T07:49:46.351Z,101044.19
2023-01-07T07:54:48.459Z,101042.28
2023-01-07T07:59:50.741Z,101043.25
2023-01-07T08:04:52.783Z,101052.97
2023-01-07T08:09:54.880Z,101057.41
2023-01-07T08:14:57.141Z,101063.63
2023-01-07T08:19:59.264Z,101053.03
2023-01-07T08:25:02.291Z,101048.66
2023-01-07T08:30:04.804Z,101058.34
2023-01-07T08:35:10.583Z,101054.88
2023-01-07T08:40:16.168Z,101037.22
2023-01-07T08:45:19.527Z,101047.94
2023-01-07T08:50:21.571Z,101047.88
2023-01-07T08:55:24.929Z,101063.78
2023-01-07T09:00:28.399Z,101060.75
2023-01-07T09:05:33.374Z,101057.25
2023-01-07T09:10:36.723Z,101042.56
2023-01-07T09:15:40.912Z,101044.78
2023-01-07T09:20:43.158Z,101037.22
2023-01-07T09:25:46.206Z,101025.31
2023-01-07T09:30:48.708Z,101033.97
2023-01-07T09:35:50.936Z,101027.06
2023-01-07T09:40:54.940Z,101035.81
2023-01-07T09:46:01.213Z,101040.63
2023-01-07T09:51:24.305Z,101029.22
2023-01-07T09:56:37.544Z,101020.38
2023-01-07T10:01:50.939Z,101035.53
2023-01-07T10:07:17.831Z,101040.03
2023-01-07T10:12:32.228Z,101039.19
2023-01-07T10:17:46.223Z,101041.94
2023-01-07T10:22:57.691Z,101039.34
2023-01-07T10:28:06.079Z,101028.78
2023-01-07T10:33:29.276Z,101026.16
2023-01-07T10:38:35.572Z,101018.19
2023-01-07T10:44:33.956Z,101017.31
2023-01-07T10:49:57.765Z,101002.28
2023-01-07T10:55:06.232Z,101007.59
2023-01-07T11:00:14.843Z,100999.66
2023-01-07T11:05:21.357Z,101004.94
2023-01-07T11:10:30.743Z,101004.03
2023-01-07T11:15:37.670Z,100990.72
2023-01-07T11:20:54.705Z,100984.50
2023-01-07T11:26:06.524Z,100976.53
2023-01-07T11:31:09.217Z,100967.63
2023-01-07T11:36:12.432Z,100945.50
2023-01-07T11:41:27.166Z,100963.22
2023-01-07T11:46:32.734Z,100961.44
2023-01-07T11:51:41.660Z,100946.34
2023-01-07T11:56:43.841Z,100952.53
2023-01-07T12:01:55.214Z,100944.53
2023-01-07T12:07:01.687Z,100927.69
2023-01-07T12:12:39.669Z,100926.78
2023-01-07T12:17:50.788Z,100928.50
2023-01-07T12:23:23.296Z,100921.44
2023-01-07T12:28:51.490Z,100915.22
2023-01-07T12:34:28.984Z,100921.38
2023-01-07T12:39:45.622Z,100917.81
2023-01-07T12:44:52.240Z,100924.25
2023-01-07T12:50:22.083Z,100909.94
2023-01-07T12:55:35.071Z,100902.81
2023-01-07T13:00:47.118Z,100905.00
2023-01-07T13:05:54.813Z,100885.50
2023-01-07T13:11:04.099Z,100893.31
2023-01-07T13:16:06.878Z,100886.75
2023-01-07T13:21:11.102Z,100887.34
2023-01-07T13:26:51.057Z,100883.03
2023-01-07T13:32:13.316Z,100883.50
2023-01-07T13:37:29.178Z,100879.16
2023-01-07T13:43:02.682Z,100885.31
2023-01-07T13:48:17.836Z,100904.03
2023-01-07T13:53:19.870Z,100907.25
2023-01-07T13:58:32.263Z,100899.38
2023-01-07T14:03:39.524Z,100901.94
2023-01-07T14:08:42.844Z,100908.44
2023-01-07T14:14:14.155Z,100906.09
2023-01-07T14:19:58.926Z,100918.91
2023-01-07T14:25:09.578Z,100911.94
2023-01-07T14:30:29.441Z,100916.56
2023-01-07T14:35:40.833Z,100897.13
2023-01-07T14:40:42.949Z,100918.22
2023-01-07T14:45:45.114Z,100907.38
2023-01-07T14:51:03.983Z,100907.22
2023-01-07T14:56:18.346Z,100903.31
2023-01-07T15:01:29.656Z,100896.78
2023-01-07T15:06:36.566Z,100906.16
2023-01-07T15:12:00.595Z,100888.81
2023-01-07T15:17:03.804Z,100880.41
2023-01-07T15:22:09.236Z,100893.25
2023-01-07T15:27:33.523Z,100887.44
2023-01-07T15:33:01.729Z,100866.47
2023-01-07T15:38:10.027Z,100859.84
2023-01-07T15:43:26.870Z,100878.69
2023-01-07T15:48:32.449Z,100872.72
2023-01-07T15:53:37.059Z,100866.78
2023-01-07T15:58:46.830Z,100880.28
2023-01-07T16:03:51.859Z,100878.72
2023-01-07T16:09:03.530Z,100889.59
2023-01-07T16:14:20.626Z,100902.19
2023-01-07T16:19:24.573Z,100889.88
2023-01-07T16:24:34.405Z,100898.84
2023-01-07T16:29:46.565Z,100886.50
2023-01-07T16:35:16.217Z,100878.59
2023-01-07T16:40:36.817Z,100871.56
2023-01-07T16:45:41.481Z,100863.69
2023-01-07T16:50:49.003Z,100853.13
2023-01-07T16:55:58.962Z,100853.19
2023-01-07T17:01:09.414Z,100845.28
2023-01-07T17:06:20.947Z,100839.13
2023-01-07T17:11:51.770Z,100845.38
2023-01-07T17:17:10.887Z,100849.88
2023-01-07T17:22:42.318Z,100854.28
2023-01-07T17:27:57.974Z,100851.66
2023-01-07T17:33:05.915Z,100839.28
2023-01-07T17:38:16.992Z,100849.91
2023-01-07T17:43:37.306Z,100841.94
2023-01-07T17:48:39.886Z,100849.00
2023-01-07T17:53:48.963Z,100860.53
2023-01-07T17:58:57.360Z,100852.53
2023-01-07T18:04:03.834Z,100836.59
2023-01-07T18:09:08.964Z,100857.38
2023-01-07T18:14:16.196Z,100850.19
2023-01-07T18:19:19.217Z,100838.34
2023-01-07T18:24:23.116Z,100838.59
2023-01-07T18:29:29.719Z,100834.53
2023-01-07T18:34:34.176Z,100823.09
2023-01-07T18:39:39.122Z,100827.59
2023-01-07T18:44:41.517Z,100831.38
2023-01-07T18:49:44.578Z,100817.78
2023-01-07T18:55:14.544Z,100814.97
2023-01-07T19:00:18.934Z,100816.56
2023-01-07T19:05:21.367Z,100821.78
2023-01-07T19:10:25.176Z,100813.75
2023-01-07T19:15:36.893Z,100810.78
2023-01-07T19:20:47.739Z,100806.19
2023-01-07T19:26:02.019Z,100807.97
2023-01-07T19:31:09.249Z,100802.44
2023-01-07T19:36:17.671Z,100804.59
2023-01-07T19:41:21.777Z,100788.53
2023-01-07T19:46:25.736Z,100784.13
2023-01-07T19:51:28.675Z,100785.06
2023-01-07T19:57:01.629Z,100786.25
2023-01-07T20:08:34.259Z,100783.78
2023-01-07T20:13:40.710Z,100767.50
2023-01-07T20:19:11.566Z,100783.88
2023-01-07T20:24:30.292Z,100786.84
2023-01-07T20:29:47.123Z,100778.94
2023-01-07T20:34:50.568Z,100777.28
2023-01-07T20:39:52.814Z,100772.75
2023-01-07T20:44:55.409Z,100770.75
2023-01-07T20:50:01.993Z,100771.41
2023-01-07T20:55:07.060Z,100768.47
2023-01-07T21:00:10.940Z,100768.25
2023-01-07T21:05:14.467Z,100774.00
2023-01-07T21:10:19.363Z,100764.63
2023-01-07T21:15:22.827Z,100764.19
2023-01-07T21:20:26.159Z,100752.16
2023-01-07T21:25:29.404Z,100757.81
2023-01-07T21:30:32.732Z,100758.06
2023-01-07T21:35:38.415Z,100749.47
2023-01-07T21:40:56.051Z,100757.69
2023-01-07T21:46:09.819Z,100755.22
2023-01-07T21:51:19.108Z,100751.03
2023-01-07T21:56:22.274Z,100753.91
2023-01-07T22:01:29.078Z,100752.25
2023-01-07T22:06:36.785Z,100746.13
2023-01-07T22:11:42.182Z,100749.84
2023-01-07T22:16:46.879Z,100739.31
2023-01-07T22:21:52.787Z,100732.41
2023-01-07T22:26:55.942Z,100737.81
2023-01-07T22:32:08.014Z,100731.69
2023-01-07T22:37:15.015Z,100731.75
2023-01-07T22:42:27.020Z,100723.88
2023-01-07T22:47:36.682Z,100726.59
2023-01-07T22:52:39.761Z,100730.22
2023-01-07T22:57:42.329Z,100716.06
2023-01-07T23:02:44.535Z,100713.44
2023-01-07T23:07:46.571Z,100701.97
2023-01-07T23:12:48.706Z,100702.88
2023-01-07T23:17:50.752Z,100703.78
2023-01-07T23:22:52.876Z,100690.53
2023-01-07T23:27:54.925Z,100670.19
2023-01-07T23:32:57.259Z,100659.63
2023-01-07T23:38:00.711Z,100669.38
2023-01-07T23:43:03.927Z,100663.19
2023-01-07T23:48:06.096Z,100652.59
2023-01-07T23:53:08.124Z,100645.50
2023-01-07T23:58:10.552Z,100641.97
